Terminal Aerodrome Forecast
Issued by NWS

Home | Current Version | Previous Version | Text Only | Print | Product List | Glossary On
Versions: 1 2 3 4 5 6 7 8 9 10 11 12 13 14 15 16
000
FTUS41 KLWX 301228 AAA
TAFMTN
TAF AMD
KMTN 301228Z 3012/0112 14007KT P6SM BKN010
     FM301500 17011G18KT P6SM BKN050
     FM301600 17012G19KT P6SM VCTS BKN050CB
     FM302200 16010G17KT P6SM -TSRA BKN050CB
     FM010000 16008KT P6SM VCTS BKN050CB
     FM010400 15005KT P6SM BKN060
     FM010800 21004KT P6SM BKN060=

USA.gov is the U.S. government's official web portal to all federal, state and local government web resources and services.